• Join FlightAware (Why Join?)
  • Login
  • US Flag 
06:20AM EDT


 

Airport Tracker/Info


-or-


 

Live Flight TrackerFlight Track Log ✈ UAL332 ✈ 24-May-2013 ✈ KPDX - KORD

Flight Track Log - Related Links

Times and Time Zones

All times are in EDT time to prevent confusion due to time zone crossing. See the UAL332 flight status page for this flight to view local times or setup timezone preferences in your user account.

Time Position Orientation Groundspeed Altitude Reporting Facility
EDT Latitude Longitude Course Direction KTS MPH feet Rate Location/Type
09:25AM 45.5972 -122.6028 90° East 168 193 500  Level Seattle Center
09:25AM 45.6047 -122.6181 305° West 174 200 1,200 1,860 Climbing Seattle Center
09:26AM 45.6236 -122.6908 290° West 232 267 2,800 2,580 Climbing Seattle Center
09:27AM 45.6683 -122.7839 305° West 261 300 6,500 3,180 Climbing Seattle Center
09:27AM 45.6811 -122.7933 333° Northwest 239 275 7,100 2,760 Climbing Seattle Center
09:28AM 45.7381 -122.7394 33° Northeast 280 322 10,000 1,980 Climbing Seattle Center
09:29AM 45.7334 -121.7450 90° East  Level FlightAware Approximate
09:29AM 45.7431 -122.6125 87° East 322 371 11,100  Level Seattle Center
09:30AM 45.7334 -121.5566 90° East  Level FlightAware Approximate
09:30AM 45.7450 -122.4608 89° East 376 433 13,300  Level Seattle Center
09:31AM 45.7456 -122.3017 90° East 396 456 15,800 2,640 Climbing Seattle Center
09:32AM 45.7447 -122.1364 90° East 412 474 18,700 2,760 Climbing Seattle Center
09:33AM 45.7453 -121.9783 90° East 400 460 21,500 1,800 Climbing Seattle Center
09:34AM 45.7464 -121.8208 89° East 409 471 22,400 1,080 Climbing Seattle Center
09:35AM 45.7450 -121.6422 91° East 444 511 23,700 1,140 Climbing Seattle Center
09:36AM 45.7436 -121.4536 91° East 468 539 24,800 1,080 Climbing Seattle Center
09:37AM 45.7422 -121.2578 91° East 489 563 25,900 1,140 Climbing Seattle Center
09:38AM 45.7392 -121.0567 91° East 504 580 27,200 1,080 Climbing Seattle Center
09:39AM 45.7186 -120.8519 98° East 515 593 28,100 1,440 Climbing Seattle Center
09:40AM 45.6892 -120.6036 100° East 526 605 30,200 1,620 Climbing Seattle Center
09:41AM 45.6650 -120.4017 100° East 518 596 31,500 1,140 Climbing Seattle Center
09:42AM 45.6397 -120.2006 100° East 514 592 32,600 720 Climbing Seattle Center
09:43AM 45.6150 -119.9983 100° East 514 592 33,000 180 Climbing Seattle Center
09:44AM 45.5897 -119.7972 100° East 513 590 33,000  Level Seattle Center
09:45AM 45.5631 -119.5933 101° East 518 596 33,000  Level Seattle Center
09:46AM 45.5367 -119.3897 100° East 520 598 33,000  Level Seattle Center
09:47AM 45.5103 -119.1861 100° East 521 600 33,000  Level Seattle Center
09:48AM 45.4831 -118.9794 101° East 527 606 33,000  Level Seattle Center
09:49AM 45.4542 -118.7722 101° East 531 611 33,000  Level Seattle Center
09:50AM 45.4261 -118.5683 101° East 527 606 33,000  Level Seattle Center
09:51AM 45.3969 -118.3642 101° East 527 606 33,000  Level Seattle Center
09:53AM 45.3947 -118.1147 91° East 531 611 33,000  Level Seattle Center
09:54AM 45.3950 -117.9061 90° East 526 605 33,000  Level Seattle Center
09:55AM 45.3936 -117.6983 90° East 527 606 33,000  Level Seattle Center
09:56AM 45.3972 -117.4914 89° East 525 604 33,000  Level Seattle Center
09:57AM 45.3989 -117.2867 89° East 521 600 33,000  Level Seattle Center
09:58AM 45.4011 -117.0553 89° East 523 602 33,000  Level Seattle Center
09:59AM 45.4028 -116.8569 89° East 523 602 33,000  Level Seattle Center
10:00AM 45.4042 -116.6578 89° East 523 602 33,000  Level Seattle Center
10:01AM 45.4047 -116.4258 90° East 523 602 33,000  Level Seattle Center
10:02AM 45.4053 -116.2261 90° East 525 604 33,000  Level Seattle Center
10:03AM 45.4067 -116.0258 89° East 526 605 33,000  Level Seattle Center
10:04AM 45.4069 -115.7914 90° East 531 611 33,000  Level Salt Lake Center
10:05AM 45.4056 -115.5928 90° East 524 603 33,000  Level Seattle Center
10:06AM 45.4047 -115.3894 90° East 532 612 33,000  Level Seattle Center
10:07AM 45.4028 -115.1544 91° East 532 612 33,000  Level Seattle Center
10:08AM 45.4008 -114.9544 91° East 530 610 33,000  Level Seattle Center
10:09AM 45.3986 -114.7214 91° East 527 606 33,000  Level Salt Lake Center
10:10AM 45.3961 -114.5211 91° East 528 608 33,000  Level Salt Lake Center
10:11AM 45.3942 -114.3208 91° East 529 609 33,000  Level Salt Lake Center
10:12AM 45.3906 -114.0867 91° East 529 609 33,000  Level Salt Lake Center
10:13AM 45.3869 -113.8861 91° East 530 610 33,000  Level Salt Lake Center
10:14AM 45.3828 -113.6889 92° East 524 603 33,000  Level Salt Lake Center
10:15AM 45.3778 -113.4669 92° East 524 603 33,000  Level Salt Lake Center
10:16AM 45.3725 -113.2619 92° East 520 598 33,000  Level Salt Lake Center
10:17AM 45.3703 -113.0608 91° East 511 588 33,000  Level Salt Lake Center
10:18AM 45.3642 -112.8583 92° East 513 590 33,000  Level Salt Lake Center
10:19AM 45.3567 -112.6322 93° East 516 594 33,000  Level Salt Lake Center
10:20AM 45.3500 -112.4369 93° East 518 596 33,000  Level Salt Lake Center
10:21AM 45.3425 -112.2078 93° East 519 597 33,000  Level Salt Lake Center
10:22AM 45.3372 -112.0017 92° East 521 600 33,000  Level Salt Lake Center
10:23AM 45.3297 -111.7967 93° East 523 602 33,000  Level Salt Lake Center
10:24AM 45.3228 -111.5922 93° East 522 601 33,000  Level Salt Lake Center
10:25AM 45.3136 -111.3900 94° East 519 597 33,000  Level Salt Lake Center
10:26AM 45.3061 -111.1878 93° East 518 596 33,000 -120 Level Salt Lake Center
10:27AM 45.2950 -110.9450 94° East 519 597 32,800 -780 Descending Salt Lake Center
10:28AM 45.2864 -110.7439 93° East 517 595 31,500 -900 Descending Salt Lake Center
10:29AM 45.2775 -110.5408 93° East 517 595 31,000 -300 Descending Salt Lake Center
10:30AM 45.2678 -110.3472 94° East 515 593 31,000 180 Level Salt Lake Center
10:31AM 45.2581 -110.1178 93° East 521 600 31,400 960 Climbing Salt Lake Center
10:32AM 45.2469 -109.9258 95° East 512 589 33,000 720 Climbing Salt Lake Center
10:33AM 45.2342 -109.7172 95° East 480 552 33,000  Level Salt Lake Center
10:34AM 45.2233 -109.5328 95° East 489 563 33,000  Level Salt Lake Center
10:35AM 45.2106 -109.3206 95° East 484 557 33,000  Level Salt Lake Center
10:37AM 45.2008 -109.1378 94° East 485 558 33,000  Level Salt Lake Center
10:38AM 45.1897 -108.9539 95° East 488 562 33,000  Level Salt Lake Center
10:39AM 45.1764 -108.7367 95° East 495 570 33,000  Level Salt Lake Center
10:40AM 45.1628 -108.5439 96° East 510 587 33,000  Level Salt Lake Center
10:41AM 45.1483 -108.3172 95° East 516 594 33,000  Level Salt Lake Center
10:42AM 45.1350 -108.1225 95° East 517 595 33,000  Level Salt Lake Center
10:43AM 45.1206 -107.9275 96° East 515 593 33,000  Level Salt Lake Center
10:44AM 45.1036 -107.7044 96° East 504 580 33,000  Level Salt Lake Center
10:45AM 45.0903 -107.5172 96° East 494 568 33,000  Level Salt Lake Center
10:46AM 45.0736 -107.3022 96° East 490 564 33,000  Level Salt Lake Center
10:47AM 45.0600 -107.1186 96° East 487 560 33,000  Level Salt Lake Center
10:48AM 45.0464 -106.9350 96° East 487 560 33,000  Level Salt Lake Center
10:49AM 45.0278 -106.7183 97° East 495 570 33,000  Level Salt Lake Center
10:50AM 45.0131 -106.5339 96° East 494 568 33,000  Level Salt Lake Center
10:51AM 44.9956 -106.3178 96° East 495 570 33,000  Level Salt Lake Center
10:52AM 44.9783 -106.1331 97° East 497 572 33,000  Level Salt Lake Center
10:52AM 44.9722 -106.0714 98° East 497 572 33,000  Level Denver Center
10:53AM 44.9528 -105.8564 97° East 495 570 33,000  Level Denver Center
10:54AM 44.9422 -105.7339 97° East 494 568 33,000  Level Salt Lake Center
10:55AM 44.9233 -105.5206 97° East 492 566 33,000  Level Salt Lake Center
10:55AM 44.9167 -105.4597 99° East 493 567 33,000  Level Denver Center
10:56AM 44.9053 -105.3361 97° East 493 567 33,000  Level Salt Lake Center
10:57AM 44.8881 -105.1506 97° East 499 574 33,000  Level Salt Lake Center
10:57AM 44.8781 -105.0572 99° East 502 578 33,000  Level Denver Center
10:58AM 44.8594 -104.8714 98° East 502 578 33,000 480 Level Denver Center
10:59AM 44.8475 -104.7456 98° East 502 578 33,900 1,140 Climbing Salt Lake Center
11:00AM 44.8253 -104.5336 98° East 500 575 35,000 780 Climbing Salt Lake Center
11:01AM 44.8186 -104.4750 99° East 496 571 35,000  Level Denver Center
11:01AM 44.8067 -104.3497 98° East 498 573 35,000  Level Salt Lake Center
11:02AM 44.7844 -104.1364 98° East 494 568 35,000  Level Salt Lake Center
11:03AM 44.7769 -104.0781 100° East 492 566 35,000  Level Denver Center
11:04AM 44.7583 -103.8956 98° East 492 566 35,000  Level Denver Center
11:05AM 44.7356 -103.6803 98° East 497 572 35,000  Level Denver Center
11:06AM 44.7142 -103.4906 99° East 496 571 35,000  Level Denver Center
11:07AM 44.6919 -103.2986 99° East 498 573 35,000  Level Denver Center
11:08AM 44.6703 -103.1081 99° East 495 570 35,000  Level Denver Center
11:09AM 44.6436 -102.8783 99° East 498 573 35,000 540 Level Denver Center
11:10AM 44.6211 -102.6872 99° East 497 572 36,200 960 Climbing Denver Center
11:11AM 44.5989 -102.5000 99° East 491 565 37,000 360 Climbing Denver Center
11:12AM 44.5767 -102.3128 99° East 489 563 37,000  Level Denver Center
11:13AM 44.5533 -102.1228 100° East 492 566 37,000  Level Denver Center
11:14AM 44.5294 -101.9325 100° East 495 570 37,000  Level Denver Center
11:15AM 44.4989 -101.7006 100° East 503 579 37,000  Level Denver Center
11:16AM 44.4819 -101.5861 102° East 502 578 37,000  Level Minneapolis Center
11:17AM 44.4575 -101.3956 100° East 501 577 37,000  Level Minneapolis Center
11:17AM 44.4481 -101.3194 100° East 501 577 37,000  Level Denver Center
11:18AM 44.4331 -101.2089 101° East 498 573 37,000  Level Minneapolis Center
11:19AM 44.4081 -101.0208 100° East 495 570 37,000  Level Minneapolis Center
11:20AM 44.3794 -100.7978 100° East 492 566 37,000  Level Minneapolis Center
11:21AM 44.3536 -100.6128 101° East 489 563 37,000  Level Minneapolis Center
11:22AM 44.3292 -100.4275 100° East 489 563 37,000  Level Minneapolis Center
11:23AM 44.3192 -100.2389 94° East 492 566 37,000  Level Minneapolis Center
11:24AM 44.3186 -100.0506 90° East 490 564 37,000  Level Minneapolis Center
11:25AM 44.3172 -99.8239 90° East 490 564 37,000  Level Minneapolis Center
11:26AM 44.3156 -99.6325 91° East 492 566 37,000  Level Minneapolis Center
11:27AM 44.3028 -99.4433 95° East 494 568 37,000  Level Minneapolis Center
11:28AM 44.2864 -99.2556 97° East 492 566 37,000  Level Minneapolis Center
11:29AM 44.2706 -99.0661 97° East 491 565 37,000  Level Minneapolis Center
11:30AM 44.2564 -98.9147 97° East 493 567 37,000  Level Minneapolis Center
11:31AM 44.2222 -98.6506 100° East 495 570 37,000  Level Minneapolis Center
11:32AM 44.1836 -98.4717 107° East 489 563 37,000  Level Minneapolis Center
11:33AM 44.1494 -98.2869 104° East 493 567 37,000  Level Minneapolis Center
11:34AM 44.1153 -98.1025 104° East 493 567 37,000  Level Minneapolis Center
11:35AM 44.0806 -97.9172 105° East 495 570 37,000  Level Minneapolis Center
11:36AM 44.0453 -97.7331 105° East 496 571 37,000  Level Minneapolis Center
11:37AM 44.0089 -97.5078 103° East 499 574 37,000  Level Minneapolis Center
11:38AM 43.9842 -97.3203 100° East 498 573 37,000  Level Minneapolis Center
11:39AM 43.9603 -97.1311 100° East 499 574 37,000  Level Minneapolis Center
11:41AM 43.9342 -96.9428 101° East 500 575 37,000  Level Minneapolis Center
11:42AM 43.9083 -96.7539 101° East 501 577 37,000  Level Minneapolis Center
11:43AM 43.8764 -96.5286 101° East 502 578 37,000  Level Minneapolis Center
11:44AM 43.8497 -96.3406 101° East 504 580 37,000  Level Minneapolis Center
11:45AM 43.8228 -96.1528 101° East 505 581 37,000  Level Minneapolis Center
11:46AM 43.7961 -95.9653 101° East 504 580 37,000  Level Minneapolis Center
11:47AM 43.7617 -95.7386 102° East 506 582 37,000  Level Minneapolis Center
11:48AM 43.7339 -95.5500 101° East 505 581 37,000  Level Minneapolis Center
11:49AM 43.7047 -95.3614 102° East 504 580 37,000  Level Minneapolis Center
11:50AM 43.6761 -95.1728 102° East 505 581 37,000  Level Minneapolis Center
11:51AM 43.6472 -94.9833 102° East 505 581 37,000  Level Minneapolis Center
11:52AM 43.6172 -94.7942 102° East 508 585 37,000  Level Minneapolis Center
11:53AM 43.5806 -94.5653 102° East 511 588 37,000  Level Minneapolis Center
11:54AM 43.5492 -94.3750 103° East 512 589 37,000  Level Minneapolis Center
11:55AM 43.5206 -94.1917 102° East 510 587 37,000  Level Minneapolis Center
11:56AM 43.4883 -94.0022 103° East 512 589 37,000  Level Minneapolis Center
11:57AM 43.4567 -93.8142 103° East 510 587 37,000  Level Minneapolis Center
11:58AM 43.4194 -93.5892 103° East 508 585 37,000  Level Minneapolis Center
11:59AM 43.3872 -93.4031 103° East 506 582 37,000  Level Minneapolis Center
12:00PM 43.3556 -93.2161 103° East 507 583 37,000  Level Minneapolis Center
12:01PM 43.3219 -93.0300 104° East 507 583 37,000  Level Minneapolis Center
12:02PM 43.2894 -92.8419 103° East 509 586 37,000  Level Minneapolis Center
12:03PM 43.2483 -92.6150 104° East 514 592 37,000  Level Minneapolis Center
12:04PM 43.2150 -92.4275 104° East 511 588 37,000  Level Minneapolis Center
12:05PM 43.2003 -92.3531 105° East 511 588 37,000 -300 Level Chicago Center
12:05PM 43.1872 -92.2772 103° East 511 588 36,700 -1,740 Descending Minneapolis Center
12:06PM 43.1469 -92.0544 104° East 505 581 34,100 -2,340 Descending Minneapolis Center
12:07PM 43.1122 -91.8669 104° East 507 583 31,900 -2,220 Descending Minneapolis Center
12:08PM 43.0972 -91.7906 105° East 512 589 31,100 -660 Descending Chicago Center
12:09PM 43.0606 -91.5950 104° East 523 602 31,000 -360 Descending Chicago Center
12:09PM 43.0308 -91.4375 104° East 526 605 30,500 -1,080 Descending Minneapolis Center
12:11PM 42.9964 -91.2553 104° East 501 577 29,200 -1,080 Descending Minneapolis Center
12:11PM 42.9831 -91.1856 105° East 489 563 29,000 -180 Descending Chicago Center
12:12PM 42.9453 -90.9964 105° East 513 590 29,000  Level Chicago Center
12:13PM 42.9078 -90.8072 105° East 517 595 29,000 -420 Level Chicago Center
12:14PM 42.8697 -90.6211 106° East 514 592 28,200 -960 Descending Chicago Center
12:15PM 42.8350 -90.4383 104° East 504 580 27,100 -1,020 Descending Chicago Center
12:16PM 42.7975 -90.2567 106° East 502 578 26,100 -1,080 Descending Chicago Center
12:17PM 42.7544 -90.0444 105° East 488 562 24,900 -1,440 Descending Chicago Center
12:18PM 42.7186 -89.8767 106° East 486 559 23,200 -2,040 Descending Chicago Center
12:19PM 42.6842 -89.7092 106° East 472 543 20,800 -2,520 Descending Chicago Center
12:20PM 42.6442 -89.5214 106° East 450 518 18,100 -1,800 Descending Chicago Center
12:21PM 42.6131 -89.3678 105° East 430 495 17,100 -600 Descending Chicago Center
12:22PM 42.5800 -89.2147 106° East 427 491 16,900 -1,140 Descending Chicago Center
12:23PM 42.5472 -89.0647 106° East 420 483 14,800 -2,040 Descending Chicago Center
12:24PM 42.5028 -88.9250 113° Southeast 407 468 12,700 -2,040 Descending Chicago Center
12:25PM 42.4564 -88.7694 112° Southeast 389 448 10,600 -1,260 Descending Chicago Center
12:26PM 42.4219 -88.6508 111° Southeast 346 398 10,200 -780 Descending Chicago Center
12:27PM 42.3908 -88.5506 113° Southeast 301 346 9,100 -900 Descending Chicago Center
12:28PM 42.3589 -88.4489 113° Southeast 293 337 8,400 -1,020 Descending Chicago Center
12:30PM 42.2942 -88.3928 147° Southeast 299 344 7,000 -1,200 Descending Chicago Center
12:31PM 42.2153 -88.3900 179° South 289 333 6,000 -540 Descending Chicago Center
12:32PM 42.1350 -88.3914 181° South 289 333 6,000 -540 Level Chicago Center
12:33PM 42.0417 -88.3875 178° South 283 326 5,000 -540 Descending Chicago Center
12:34PM 41.9986 -88.3108 127° Southeast 266 306 5,000 -300 Level Chicago Center
12:35PM 41.9706 -88.2383 117° Southeast 239 275 4,400 -540 Descending Chicago Center
12:36PM 41.9678 -88.1592 93° East 226 260 4,000 -420 Descending Chicago Center